createdAt,value
2023-05-23T14:44:16.674Z,75383.94
2023-05-23T14:51:51.307Z,75406.38
2023-05-23T14:59:26.790Z,75432.91
2023-05-23T15:07:00.875Z,75551.28
2023-05-23T15:14:39.885Z,75634.94
2023-05-23T15:22:30.342Z,75665.53
2023-05-23T15:30:10.447Z,75706.34
2023-05-23T15:37:44.948Z,75726.78
2023-05-23T15:45:20.075Z,75779.81
2023-05-23T15:52:53.892Z,75783.91
2023-05-23T16:00:29.043Z,75824.72
2023-05-23T16:08:03.496Z,75836.97
2023-05-23T16:15:38.736Z,75855.34
2023-05-23T16:23:12.608Z,75869.63
2023-05-23T16:30:47.747Z,75869.63
2023-05-23T16:38:21.557Z,75871.66
2023-05-23T16:45:56.847Z,75902.28
2023-05-23T16:53:30.690Z,75914.53
2023-05-23T17:01:06.151Z,75932.88
2023-05-23T17:08:40.092Z,75934.94
2023-05-23T17:16:18.032Z,75985.94
2023-05-23T17:23:54.327Z,76018.59
2023-05-23T17:40:23.002Z,76061.47
2023-05-23T17:47:58.629Z,76081.88
2023-05-23T17:55:34.082Z,76071.66
2023-05-23T18:03:07.948Z,76081.88
2023-05-23T18:10:47.336Z,76077.78
2023-05-23T18:18:21.236Z,76079.81
2023-05-23T18:25:56.894Z,76098.19
2023-05-23T18:33:30.757Z,76098.19
2023-05-23T18:49:58.599Z,76114.53
2023-05-23T18:57:33.182Z,76118.59
2023-05-23T19:05:10.066Z,76126.78
2023-05-23T19:12:43.834Z,76139.03
2023-05-23T19:20:20.077Z,76143.09
2023-05-23T19:27:53.888Z,76145.13
2023-05-23T19:35:29.234Z,76159.44
2023-05-23T19:43:03.082Z,76159.44
2023-05-23T19:50:43.365Z,76175.75
2023-05-23T19:58:18.508Z,76198.22
2023-05-23T20:05:53.757Z,76230.88
2023-05-23T20:13:28.519Z,76257.41
2023-05-23T20:21:05.379Z,76273.72
2023-05-23T20:28:39.232Z,76292.09
2023-05-23T20:36:14.492Z,76312.50
2023-05-23T20:43:48.342Z,76339.03
2023-05-23T20:51:23.981Z,76341.09
2023-05-23T20:59:00.169Z,76339.03
2023-05-23T21:06:35.263Z,76353.31
2023-05-23T21:14:09.006Z,76396.19
2023-05-23T21:21:44.115Z,76420.69
2023-05-23T21:29:17.957Z,76430.88
2023-05-23T21:36:53.333Z,76422.72
2023-05-23T21:44:27.156Z,76443.13
2023-05-23T21:52:02.387Z,76449.25
2023-05-23T21:59:36.223Z,76479.88
2023-05-23T22:07:11.472Z,76492.13
2023-05-23T22:14:45.429Z,76504.38
2023-05-23T22:22:20.684Z,76512.53
2023-05-23T22:29:54.530Z,76516.63
2023-05-23T22:37:29.771Z,76537.03
2023-05-23T22:45:03.967Z,76532.94
2023-05-23T22:52:39.366Z,76549.28
2023-05-23T23:00:14.961Z,76547.25
2023-05-23T23:07:50.621Z,76559.47
2023-05-23T23:15:24.830Z,76555.41
2023-05-23T23:31:55.755Z,76573.78
2023-05-23T23:39:29.428Z,76567.66
2023-05-23T23:47:04.904Z,76600.31
2023-05-23T23:54:38.626Z,76590.09
